createdAt,value
2018-02-09T00:00:53.428Z,-0.47
2018-02-09T00:01:53.417Z,-0.38
2018-02-09T00:02:53.405Z,-0.32
2018-02-09T00:03:53.430Z,-0.34
2018-02-09T00:04:53.431Z,-0.46
2018-02-09T00:05:53.377Z,-0.50
2018-02-09T00:06:53.363Z,-0.39
2018-02-09T00:07:53.386Z,-0.44
2018-02-09T00:08:53.344Z,-0.43
2018-02-09T00:09:53.379Z,-0.44
2018-02-09T00:10:53.320Z,-0.50
2018-02-09T00:11:53.343Z,-0.47
2018-02-09T00:12:53.299Z,-0.46
2018-02-09T00:13:53.290Z,-0.41
2018-02-09T00:14:53.340Z,-0.47
2018-02-09T00:15:53.266Z,-0.44
2018-02-09T00:16:53.257Z,-0.56
2018-02-09T00:17:53.254Z,-0.46
2018-02-09T00:18:53.261Z,-0.54
2018-02-09T00:19:53.240Z,-0.49
2018-02-09T00:20:53.213Z,-0.57
2018-02-09T00:21:53.204Z,-0.43
2018-02-09T00:22:53.192Z,-0.54
2018-02-09T00:23:53.186Z,-0.53
2018-02-09T00:24:53.193Z,-0.52
2018-02-09T00:25:53.173Z,-0.54
2018-02-09T00:26:53.147Z,-0.53
2018-02-09T00:27:53.137Z,-0.56
2018-02-09T00:28:53.126Z,-0.62
2018-02-09T00:29:53.128Z,-0.59
2018-02-09T00:30:53.104Z,-0.61
2018-02-09T00:31:53.094Z,-0.62
2018-02-09T00:32:53.086Z,-0.68
2018-02-09T00:33:53.070Z,-0.68
2018-02-09T00:34:53.060Z,-0.67
2018-02-09T00:35:53.052Z,-0.70
2018-02-09T00:36:53.183Z,-0.74
2018-02-09T00:37:53.135Z,-0.85
2018-02-09T00:38:53.077Z,-0.86
2018-02-09T00:39:54.398Z,-0.90
2018-02-09T00:40:53.059Z,-0.78
2018-02-09T00:41:52.989Z,-0.93
2018-02-09T00:42:52.983Z,-0.82
2018-02-09T00:43:53.043Z,-0.90
2018-02-09T00:44:52.969Z,-0.93
2018-02-09T00:45:53.018Z,-0.89
2018-02-09T00:46:52.942Z,-0.90
2018-02-09T00:47:52.931Z,-0.91
2018-02-09T00:48:52.962Z,-0.91
2018-02-09T00:49:52.986Z,-0.94
2018-02-09T00:50:52.888Z,-0.90
2018-02-09T00:51:52.874Z,-0.94
2018-02-09T00:52:52.866Z,-0.97
2018-02-09T00:53:52.853Z,-0.96
2018-02-09T00:54:53.912Z,-0.93
2018-02-09T00:55:52.852Z,-0.96
2018-02-09T00:56:52.822Z,-1.05
2018-02-09T00:57:52.806Z,-0.91
2018-02-09T00:58:52.796Z,-0.94
2018-02-09T00:59:52.788Z,-1.01
2018-02-09T01:00:52.773Z,-0.99
2018-02-09T01:01:52.771Z,-1.04
2018-02-09T01:02:52.818Z,-0.96
2018-02-09T01:03:52.818Z,-1.01
2018-02-09T01:04:52.737Z,-1.11
2018-02-09T01:05:52.717Z,-1.11
2018-02-09T01:06:52.753Z,-1.07
2018-02-09T01:07:52.696Z,-1.09
2018-02-09T01:08:52.788Z,-1.07
2018-02-09T01:09:52.727Z,-1.09
2018-02-09T01:10:52.663Z,-1.07
2018-02-09T01:11:52.714Z,-1.19
2018-02-09T01:12:52.639Z,-1.17
2018-02-09T01:13:52.629Z,-1.15
2018-02-09T01:14:52.624Z,-1.19
2018-02-09T01:15:52.606Z,-1.20
2018-02-09T01:16:52.596Z,-1.26
2018-02-09T01:17:52.589Z,-1.19
2018-02-09T01:18:52.575Z,-1.32
2018-02-09T01:19:52.562Z,-1.26
2018-02-09T01:20:52.553Z,-1.37
2018-02-09T01:21:52.538Z,-1.30
2018-02-09T01:22:52.526Z,-1.32
2018-02-09T01:23:52.516Z,-1.26
2018-02-09T01:24:52.505Z,-1.33
2018-02-09T01:25:52.494Z,-1.27
2018-02-09T01:26:52.481Z,-1.33
2018-02-09T01:27:52.471Z,-1.41
2018-02-09T01:28:52.460Z,-1.35
2018-02-09T01:29:52.446Z,-1.32
2018-02-09T01:30:52.436Z,-1.46
2018-02-09T01:31:52.425Z,-1.35
2018-02-09T01:32:52.414Z,-1.33
2018-02-09T01:33:52.405Z,-1.38
2018-02-09T01:34:52.397Z,-1.38
2018-02-09T01:35:52.380Z,-1.37
2018-02-09T01:36:52.368Z,-1.38
2018-02-09T01:37:52.357Z,-1.48
2018-02-09T01:38:52.347Z,-1.44
2018-02-09T01:39:52.336Z,-1.41
2018-02-09T01:40:52.325Z,-1.46
2018-02-09T01:41:52.313Z,-1.48
2018-02-09T01:42:52.300Z,-1.59
2018-02-09T01:43:52.289Z,-1.50
2018-02-09T01:44:52.278Z,-1.54
2018-02-09T01:45:52.268Z,-1.54
2018-02-09T01:46:52.254Z,-1.58
2018-02-09T01:47:52.248Z,-1.62
2018-02-09T01:48:52.232Z,-1.59
2018-02-09T01:49:52.224Z,-1.58
2018-02-09T01:50:52.212Z,-1.64
2018-02-09T01:51:52.196Z,-1.65
2018-02-09T01:52:52.190Z,-1.65
2018-02-09T01:53:52.176Z,-1.65
2018-02-09T01:54:52.162Z,-1.68
2018-02-09T01:55:52.151Z,-1.66
2018-02-09T01:56:52.139Z,-1.62
2018-02-09T01:57:52.128Z,-1.64
2018-02-09T01:58:52.117Z,-1.62
2018-02-09T01:59:52.108Z,-1.66
2018-02-09T02:00:52.095Z,-1.77
2018-02-09T02:01:52.083Z,-1.74
2018-02-09T02:02:52.069Z,-1.71
2018-02-09T02:03:52.060Z,-1.76
2018-02-09T02:04:52.047Z,-1.68
2018-02-09T02:05:52.037Z,-1.79
2018-02-09T02:06:52.028Z,-1.76
2018-02-09T02:07:52.015Z,-1.76
2018-02-09T02:08:52.000Z,-1.72
2018-02-09T02:09:51.989Z,-1.82
2018-02-09T02:10:51.977Z,-1.76
2018-02-09T02:11:51.966Z,-1.82
2018-02-09T02:12:51.953Z,-1.77
2018-02-09T02:13:51.941Z,-1.83
2018-02-09T02:14:51.931Z,-1.89
2018-02-09T02:15:51.918Z,-1.86
2018-02-09T02:16:51.908Z,-1.82
2018-02-09T02:17:51.895Z,-1.80
2018-02-09T02:18:51.884Z,-1.89
2018-02-09T02:19:51.871Z,-1.89
2018-02-09T02:20:51.861Z,-1.86
2018-02-09T02:21:51.852Z,-1.90
2018-02-09T02:22:51.837Z,-1.90
2018-02-09T02:23:51.825Z,-1.94
2018-02-09T02:24:51.814Z,-1.92
2018-02-09T02:25:51.801Z,-1.90
2018-02-09T02:26:51.789Z,-1.89
2018-02-09T02:27:51.777Z,-1.97
2018-02-09T02:28:51.767Z,-1.95
2018-02-09T02:29:51.754Z,-2.00
2018-02-09T02:30:51.743Z,-1.98
2018-02-09T02:31:51.733Z,-2.01
2018-02-09T02:32:51.720Z,-2.02
2018-02-09T02:33:51.707Z,-2.00
2018-02-09T02:34:51.695Z,-2.02
2018-02-09T02:35:51.683Z,-1.98
2018-02-09T02:36:51.672Z,-1.98
2018-02-09T02:37:51.664Z,-2.02
2018-02-09T02:38:51.651Z,-2.00
2018-02-09T02:39:51.636Z,-2.02
2018-02-09T02:40:51.625Z,-2.02
2018-02-09T02:41:51.612Z,-2.01
2018-02-09T02:42:51.604Z,-2.04
2018-02-09T02:43:51.588Z,-2.04
2018-02-09T02:44:51.577Z,-2.05
2018-02-09T02:45:51.565Z,-2.01
2018-02-09T02:46:51.553Z,-2.02
2018-02-09T02:47:51.543Z,-2.07
2018-02-09T02:48:51.530Z,-2.04
2018-02-09T02:49:51.516Z,-2.05
2018-02-09T02:50:51.510Z,-2.16
2018-02-09T02:51:51.495Z,-2.18
2018-02-09T02:52:51.482Z,-2.08
2018-02-09T02:53:51.646Z,-2.04
2018-02-09T02:54:51.516Z,-2.00
2018-02-09T02:55:51.574Z,-2.01
2018-02-09T02:56:51.498Z,-2.01
2018-02-09T02:57:51.422Z,-2.01
2018-02-09T02:58:51.412Z,-2.02
2018-02-09T02:59:51.397Z,-2.04
2018-02-09T03:00:51.387Z,-2.02
2018-02-09T03:01:51.374Z,-2.02
2018-02-09T03:02:51.362Z,-2.08
2018-02-09T03:03:51.352Z,-2.05
2018-02-09T03:04:51.339Z,-2.00
2018-02-09T03:05:51.325Z,-2.01
2018-02-09T03:06:51.313Z,-2.04
2018-02-09T03:07:51.302Z,-2.04
2018-02-09T03:08:51.290Z,-2.00
2018-02-09T03:09:51.277Z,-2.04
2018-02-09T03:10:51.266Z,-2.00
2018-02-09T03:11:51.255Z,-2.05
2018-02-09T03:12:51.243Z,-2.16
2018-02-09T03:13:51.230Z,-2.10
2018-02-09T03:14:51.221Z,-2.10
2018-02-09T03:15:51.208Z,-2.01
2018-02-09T03:16:51.193Z,-1.94
2018-02-09T03:17:51.183Z,-2.02
2018-02-09T03:18:51.171Z,-1.97
2018-02-09T03:19:51.162Z,-1.92
2018-02-09T03:20:51.148Z,-1.92
2018-02-09T03:21:51.135Z,-2.00
2018-02-09T03:22:51.122Z,-2.00
2018-02-09T03:23:51.111Z,-1.92
2018-02-09T03:24:51.099Z,-1.95
2018-02-09T03:25:51.087Z,-1.97
2018-02-09T03:26:51.075Z,-1.87
2018-02-09T03:27:51.063Z,-1.95
2018-02-09T03:28:51.052Z,-1.90
2018-02-09T03:29:51.058Z,-1.89
2018-02-09T03:30:51.028Z,-1.95
2018-02-09T03:31:51.015Z,-1.86
2018-02-09T03:32:51.004Z,-1.87
2018-02-09T03:33:50.992Z,-1.90
2018-02-09T03:34:50.983Z,-1.90
2018-02-09T03:35:50.972Z,-1.89
2018-02-09T03:36:50.957Z,-1.90
2018-02-09T03:37:50.943Z,-1.86
2018-02-09T03:38:50.933Z,-1.98
2018-02-09T03:39:50.922Z,-1.98
2018-02-09T03:40:50.910Z,-1.94
2018-02-09T03:41:50.901Z,-1.90
2018-02-09T03:42:50.892Z,-1.89
2018-02-09T03:43:50.873Z,-1.97
2018-02-09T03:44:50.860Z,-1.92
2018-02-09T03:45:50.847Z,-1.87
2018-02-09T03:46:50.860Z,-1.90
2018-02-09T03:47:50.864Z,-1.77
2018-02-09T03:48:50.817Z,-1.76
2018-02-09T03:49:50.800Z,-1.77
2018-02-09T03:50:50.786Z,-1.77
2018-02-09T03:51:50.786Z,-1.87
2018-02-09T03:52:50.763Z,-1.92
2018-02-09T03:53:50.751Z,-1.92
2018-02-09T03:54:50.740Z,-1.89
2018-02-09T03:55:50.726Z,-2.02
2018-02-09T03:56:50.726Z,-1.97
2018-02-09T03:57:50.703Z,-1.95
2018-02-09T03:58:50.689Z,-1.86
2018-02-09T03:59:50.683Z,-1.95
2018-02-09T04:00:50.665Z,-1.98
2018-02-09T04:01:50.984Z,-1.89
2018-02-09T04:02:50.642Z,-1.95
2018-02-09T04:03:50.628Z,-1.95
2018-02-09T04:04:50.617Z,-1.90
2018-02-09T04:05:50.604Z,-1.89
2018-02-09T04:06:50.592Z,-1.90
2018-02-09T04:07:50.587Z,-1.87
2018-02-09T04:08:50.568Z,-1.95
2018-02-09T04:09:50.557Z,-1.90
2018-02-09T04:10:50.544Z,-1.92
2018-02-09T04:11:50.531Z,-1.86
2018-02-09T04:12:50.519Z,-1.84
2018-02-09T04:13:50.507Z,-1.79
2018-02-09T04:14:50.497Z,-1.77
2018-02-09T04:15:50.501Z,-1.77
2018-02-09T04:16:50.470Z,-1.77
2018-02-09T04:17:50.458Z,-1.89
2018-02-09T04:18:50.446Z,-1.94
2018-02-09T04:19:50.435Z,-1.98
2018-02-09T04:20:50.428Z,-1.90
2018-02-09T04:21:50.410Z,-1.97
2018-02-09T04:22:50.400Z,-1.95
2018-02-09T04:23:50.386Z,-1.92
2018-02-09T04:24:50.374Z,-1.89
2018-02-09T04:25:50.361Z,-1.87
2018-02-09T04:26:50.350Z,-2.01
2018-02-09T04:27:50.340Z,-1.86
2018-02-09T04:28:50.324Z,-1.90
2018-02-09T04:29:50.318Z,-1.82
2018-02-09T04:30:50.301Z,-1.86
2018-02-09T04:31:50.290Z,-1.92
2018-02-09T04:32:50.277Z,-1.80
2018-02-09T04:33:50.265Z,-1.82
2018-02-09T04:34:50.253Z,-1.71
2018-02-09T04:35:50.241Z,-1.62
2018-02-09T04:36:50.231Z,-1.64
2018-02-09T04:37:50.216Z,-1.62
2018-02-09T04:38:50.204Z,-1.62
2018-02-09T04:39:50.194Z,-1.56
2018-02-09T04:40:50.181Z,-1.59
2018-02-09T04:41:50.167Z,-1.59
2018-02-09T04:42:50.157Z,-1.56
2018-02-09T04:43:50.145Z,-1.54
2018-02-09T04:44:50.136Z,-1.50
2018-02-09T04:45:50.122Z,-1.59
2018-02-09T04:46:50.109Z,-1.58
2018-02-09T04:47:50.101Z,-1.61
2018-02-09T04:48:50.086Z,-1.61
2018-02-09T04:49:50.073Z,-1.64
2018-02-09T04:50:50.064Z,-1.68
2018-02-09T04:51:50.050Z,-1.64
2018-02-09T04:52:50.037Z,-1.71
2018-02-09T04:53:50.026Z,-1.72
2018-02-09T04:54:50.014Z,-1.77
2018-02-09T04:55:50.002Z,-1.84
2018-02-09T04:56:49.990Z,-1.76
2018-02-09T04:57:49.978Z,-1.80
2018-02-09T04:58:49.971Z,-1.77
2018-02-09T04:59:49.956Z,-1.83
2018-02-09T05:00:49.950Z,-1.77
2018-02-09T05:01:49.932Z,-1.82
2018-02-09T05:02:49.967Z,-1.72
2018-02-09T05:03:49.906Z,-1.82
2018-02-09T05:04:49.900Z,-1.74
2018-02-09T05:05:49.884Z,-1.77
2018-02-09T05:06:49.872Z,-1.72
2018-02-09T05:07:49.860Z,-1.68
2018-02-09T05:08:49.846Z,-1.74
2018-02-09T05:09:49.835Z,-1.84
2018-02-09T05:10:49.822Z,-1.87
2018-02-09T05:11:49.811Z,-1.86
2018-02-09T05:12:49.799Z,-1.83
2018-02-09T05:13:49.834Z,-1.83
2018-02-09T05:14:49.774Z,-1.90
2018-02-09T05:15:49.762Z,-1.94
2018-02-09T05:16:49.751Z,-1.98
2018-02-09T05:17:49.738Z,-1.86
2018-02-09T05:18:49.725Z,-1.94
2018-02-09T05:19:49.713Z,-1.95
2018-02-09T05:20:49.708Z,-1.90
2018-02-09T05:21:49.691Z,-1.89
2018-02-09T05:22:49.678Z,-1.95
2018-02-09T05:23:49.675Z,-1.94
2018-02-09T05:24:49.655Z,-2.02
2018-02-09T05:25:49.643Z,-1.98
2018-02-09T05:26:49.629Z,-2.07
2018-02-09T05:27:49.615Z,-1.94
2018-02-09T05:28:49.604Z,-1.94
2018-02-09T05:29:49.591Z,-1.95
2018-02-09T05:30:49.578Z,-1.97
2018-02-09T05:31:49.570Z,-1.94
2018-02-09T05:32:49.555Z,-2.07
2018-02-09T05:33:49.542Z,-2.02
2018-02-09T05:34:49.530Z,-2.08
2018-02-09T05:35:49.518Z,-2.02
2018-02-09T05:36:49.506Z,-2.02
2018-02-09T05:37:49.498Z,-2.07
2018-02-09T05:38:49.481Z,-2.13
2018-02-09T05:39:49.471Z,-2.00
2018-02-09T05:40:49.458Z,-1.98
2018-02-09T05:41:49.446Z,-1.86
2018-02-09T05:42:49.432Z,-1.95
2018-02-09T05:43:49.420Z,-1.89
2018-02-09T05:44:49.408Z,-1.86
2018-02-09T05:45:49.396Z,-1.89
2018-02-09T05:46:49.396Z,-1.92
2018-02-09T05:47:49.374Z,-1.90
2018-02-09T05:48:49.361Z,-1.90
2018-02-09T05:49:49.346Z,-1.90
2018-02-09T05:50:49.339Z,-1.92
2018-02-09T05:51:49.325Z,-1.90
2018-02-09T05:52:49.313Z,-1.90
2018-02-09T05:53:49.298Z,-2.05
2018-02-09T05:54:49.293Z,-1.95
2018-02-09T05:55:49.275Z,-2.08
2018-02-09T05:56:49.317Z,-2.04
2018-02-09T05:57:49.249Z,-2.04
2018-02-09T05:58:49.237Z,-2.08
2018-02-09T05:59:49.226Z,-2.05
2018-02-09T06:00:49.215Z,-2.08
2018-02-09T06:01:49.201Z,-2.08
2018-02-09T06:02:49.189Z,-2.12
2018-02-09T06:03:49.177Z,-2.04
2018-02-09T06:04:49.164Z,-2.02
2018-02-09T06:05:49.152Z,-2.01
2018-02-09T06:06:49.143Z,-2.01
2018-02-09T06:07:49.129Z,-1.98
2018-02-09T06:08:49.115Z,-1.95
2018-02-09T06:09:49.103Z,-2.07
2018-02-09T06:10:49.091Z,-1.98
2018-02-09T06:11:49.114Z,-2.00
2018-02-09T06:12:49.079Z,-1.98
2018-02-09T06:13:49.056Z,-2.08
2018-02-09T06:14:49.042Z,-1.95
2018-02-09T06:15:49.032Z,-1.94
2018-02-09T06:16:49.020Z,-1.95
2018-02-09T06:17:49.011Z,-1.90
2018-02-09T06:18:48.993Z,-1.94
2018-02-09T06:19:48.981Z,-1.95
2018-02-09T06:20:49.009Z,-2.00
2018-02-09T06:21:48.957Z,-1.95
2018-02-09T06:22:48.948Z,-1.86
2018-02-09T06:23:48.933Z,-1.92
2018-02-09T06:24:48.922Z,-1.97
2018-02-09T06:25:48.909Z,-1.90
2018-02-09T06:26:48.896Z,-1.80
2018-02-09T06:27:48.884Z,-1.90
2018-02-09T06:28:48.874Z,-1.90
2018-02-09T06:29:48.860Z,-1.87
2018-02-09T06:30:48.913Z,-1.90
2018-02-09T06:31:48.837Z,-1.92
2018-02-09T06:32:48.826Z,-1.89
2018-02-09T06:33:48.872Z,-1.90
2018-02-09T06:34:48.868Z,-1.89
2018-02-09T06:35:49.458Z,-1.94
2018-02-09T06:36:48.814Z,-1.94
2018-02-09T06:37:48.887Z,-1.92
2018-02-09T06:38:48.849Z,-1.79
2018-02-09T06:39:49.417Z,-1.76
2018-02-09T06:40:48.850Z,-1.82
2018-02-09T06:41:48.870Z,-1.76
2018-02-09T06:42:48.790Z,-1.74
2018-02-09T06:43:48.802Z,-1.77
2018-02-09T06:44:48.780Z,-1.64
2018-02-09T06:45:48.767Z,-1.65
2018-02-09T06:46:48.757Z,-1.59
2018-02-09T06:47:48.710Z,-1.64
2018-02-09T06:48:48.734Z,-1.56
2018-02-09T06:49:48.629Z,-1.53
2018-02-09T06:50:48.730Z,-1.51
2018-02-09T06:51:48.751Z,-1.50
2018-02-09T06:52:49.891Z,-1.54
2018-02-09T06:53:48.717Z,-1.48
2018-02-09T06:54:48.590Z,-1.48
2018-02-09T06:55:48.630Z,-1.59
2018-02-09T06:56:48.608Z,-1.68
2018-02-09T06:57:48.647Z,-1.65
2018-02-09T06:58:48.544Z,-1.62
2018-02-09T06:59:48.542Z,-1.54
2018-02-09T07:00:48.539Z,-1.62
2018-02-09T07:01:48.494Z,-1.56
2018-02-09T07:02:48.537Z,-1.47
2018-02-09T07:03:48.470Z,-1.51
2018-02-09T07:04:48.487Z,-1.58
2018-02-09T07:05:48.433Z,-1.64
2018-02-09T07:06:48.451Z,-1.61
2018-02-09T07:07:48.427Z,-1.51
2018-02-09T07:08:48.610Z,-1.53
2018-02-09T07:09:49.123Z,-1.61
2018-02-09T07:10:48.385Z,-1.59
2018-02-09T07:11:48.364Z,-1.56
2018-02-09T07:12:48.354Z,-1.58
2018-02-09T07:13:48.411Z,-1.64
2018-02-09T07:14:48.471Z,-1.69
2018-02-09T07:15:49.407Z,-1.76
2018-02-09T07:16:49.397Z,-1.59
2018-02-09T07:17:48.861Z,-1.58
2018-02-09T07:18:48.324Z,-1.54
2018-02-09T07:19:48.263Z,-1.50
2018-02-09T07:20:48.352Z,-1.61
2018-02-09T07:21:48.240Z,-1.58
2018-02-09T07:22:48.228Z,-1.56
2018-02-09T07:23:48.228Z,-1.44
2018-02-09T07:24:48.654Z,-1.44
2018-02-09T07:25:48.192Z,-1.43
2018-02-09T07:26:48.181Z,-1.38
2018-02-09T07:27:49.213Z,-1.35
2018-02-09T07:28:48.157Z,-1.35
2018-02-09T07:29:48.985Z,-1.43
2018-02-09T07:30:49.097Z,-1.37
2018-02-09T07:31:51.070Z,-1.32
2018-02-09T07:32:48.902Z,-1.37
2018-02-09T07:33:48.098Z,-1.38
2018-02-09T07:34:48.086Z,-1.38
2018-02-09T07:35:48.074Z,-1.33
2018-02-09T07:36:48.063Z,-1.32
2018-02-09T07:37:48.607Z,-1.30
2018-02-09T07:38:48.128Z,-1.30
2018-02-09T07:39:48.035Z,-1.20
2018-02-09T07:40:48.033Z,-1.25
2018-02-09T07:41:48.008Z,-1.11
2018-02-09T07:42:48.861Z,-1.12
2018-02-09T07:43:48.027Z,-1.08
2018-02-09T07:44:47.974Z,-1.15
2018-02-09T07:45:48.078Z,-1.14
2018-02-09T07:46:47.971Z,-1.07
2018-02-09T07:47:47.957Z,-1.14
2018-02-09T07:48:47.960Z,-1.05
2018-02-09T07:49:47.973Z,-0.96
2018-02-09T07:50:48.025Z,-1.04
2018-02-09T07:51:47.908Z,-1.07
2018-02-09T07:52:47.889Z,-1.12
2018-02-09T07:53:47.869Z,-1.14
2018-02-09T07:54:47.854Z,-1.01
2018-02-09T07:55:47.842Z,-1.11
2018-02-09T07:56:47.832Z,-1.11
2018-02-09T07:57:47.818Z,-1.11
2018-02-09T07:58:47.841Z,-1.19
2018-02-09T07:59:47.797Z,-1.11
2018-02-09T08:00:47.785Z,-1.22
2018-02-09T08:01:48.439Z,-1.26
2018-02-09T08:02:47.760Z,-1.19
2018-02-09T08:03:47.755Z,-1.23
2018-02-09T08:04:47.760Z,-1.23
2018-02-09T08:05:47.725Z,-1.22
2018-02-09T08:06:47.714Z,-1.22
2018-02-09T08:07:47.715Z,-1.22
2018-02-09T08:08:47.759Z,-1.14
2018-02-09T08:09:47.678Z,-1.17
2018-02-09T08:10:47.668Z,-1.26
2018-02-09T08:11:47.731Z,-1.27
2018-02-09T08:12:47.660Z,-1.30
2018-02-09T08:13:47.672Z,-1.29
2018-02-09T08:14:47.707Z,-1.25
2018-02-09T08:15:47.821Z,-1.22
2018-02-09T08:16:47.693Z,-1.07
2018-02-09T08:17:47.936Z,-1.02
2018-02-09T08:18:47.592Z,-0.97
2018-02-09T08:19:48.662Z,-0.97
2018-02-09T08:20:47.647Z,-0.97
2018-02-09T08:21:47.540Z,-0.90
2018-02-09T08:22:47.528Z,-0.85
2018-02-09T08:23:47.518Z,-0.80
2018-02-09T08:24:47.506Z,-0.90
2018-02-09T08:25:47.493Z,-0.96
2018-02-09T08:26:47.482Z,-0.97
2018-02-09T08:27:47.475Z,-0.97
2018-02-09T08:28:47.460Z,-1.02
2018-02-09T08:29:47.448Z,-1.15
2018-02-09T08:30:47.440Z,-1.11
2018-02-09T08:31:47.426Z,-1.14
2018-02-09T08:32:47.415Z,-1.09
2018-02-09T08:33:47.422Z,-1.04
2018-02-09T08:34:47.391Z,-0.96
2018-02-09T08:35:47.382Z,-1.02
2018-02-09T08:36:47.403Z,-1.04
2018-02-09T08:37:47.379Z,-1.02
2018-02-09T08:38:47.345Z,-1.04
2018-02-09T08:39:47.334Z,-0.93
2018-02-09T08:40:47.333Z,-0.94
2018-02-09T08:41:47.320Z,-1.01
2018-02-09T08:42:47.364Z,-0.75
2018-02-09T08:43:47.307Z,-0.78
2018-02-09T08:44:47.283Z,-0.85
2018-02-09T08:45:47.288Z,-0.77
2018-02-09T08:46:47.259Z,-0.90
2018-02-09T08:47:47.241Z,-0.77
2018-02-09T08:48:47.942Z,-0.83
2018-02-09T08:49:47.234Z,-0.83
2018-02-09T08:50:47.207Z,-0.78
2018-02-09T08:51:47.197Z,-0.83
2018-02-09T08:52:47.196Z,-0.70
2018-02-09T08:53:47.172Z,-0.65
2018-02-09T08:54:47.164Z,-0.54
2018-02-09T08:55:47.150Z,-0.56
2018-02-09T08:56:47.140Z,-0.62
2018-02-09T08:57:47.130Z,-0.52
2018-02-09T08:58:47.177Z,-0.46
2018-02-09T08:59:47.106Z,-0.59
2018-02-09T09:00:47.096Z,-0.47
2018-02-09T09:01:47.084Z,-0.52
2018-02-09T09:02:47.079Z,-0.59
2018-02-09T09:03:47.065Z,-0.57
2018-02-09T09:04:47.051Z,-0.43
2018-02-09T09:05:47.039Z,-0.46
2018-02-09T09:06:47.028Z,-0.47
2018-02-09T09:07:47.033Z,-0.49
2018-02-09T09:08:47.011Z,-0.47
2018-02-09T09:09:47.001Z,-0.47
2018-02-09T09:10:46.985Z,-0.56
2018-02-09T09:11:46.976Z,-0.46
2018-02-09T09:12:47.016Z,-0.43
2018-02-09T09:13:46.991Z,-0.41
2018-02-09T09:14:46.940Z,-0.41
2018-02-09T09:15:46.962Z,-0.41
2018-02-09T09:16:46.992Z,-0.47
2018-02-09T09:17:46.915Z,-0.46
2018-02-09T09:18:46.901Z,-0.44
2018-02-09T09:19:46.894Z,-0.46
2018-02-09T09:20:46.874Z,-0.41
2018-02-09T09:21:46.892Z,-0.32
2018-02-09T09:22:46.854Z,-0.34
2018-02-09T09:23:46.843Z,-0.38
2018-02-09T09:24:46.831Z,-0.32
2018-02-09T09:25:46.826Z,-0.38
2018-02-09T09:26:46.807Z,-0.35
2018-02-09T09:27:46.798Z,-0.29
2018-02-09T09:28:46.791Z,-0.38
2018-02-09T09:29:46.797Z,-0.44
2018-02-09T09:30:46.766Z,-0.44
2018-02-09T09:31:46.756Z,-0.47
2018-02-09T09:32:46.768Z,-0.41
2018-02-09T09:33:46.739Z,-0.44
2018-02-09T09:34:46.723Z,-0.44
2018-02-09T09:35:46.720Z,-0.38
2018-02-09T09:36:46.755Z,-0.39
2018-02-09T09:37:46.765Z,-0.39
2018-02-09T09:38:46.679Z,-0.35
2018-02-09T09:39:46.667Z,-0.32
2018-02-09T09:40:46.656Z,-0.32
2018-02-09T09:41:46.673Z,-0.32
2018-02-09T09:42:46.633Z,-0.31
2018-02-09T09:43:46.625Z,-0.29
2018-02-09T09:44:46.627Z,-0.26
2018-02-09T09:45:46.600Z,-0.18
2018-02-09T09:46:46.590Z,-0.17
2018-02-09T09:47:46.582Z,-0.17
2018-02-09T09:48:46.571Z,-0.17
2018-02-09T09:49:46.558Z,-0.11
2018-02-09T09:50:46.548Z,-0.10
2018-02-09T09:51:46.541Z,-0.18
2018-02-09T09:52:46.532Z,-0.13
2018-02-09T09:53:46.513Z,-0.02
2018-02-09T09:54:46.503Z,0.03
2018-02-09T09:55:46.494Z,0.07
2018-02-09T09:56:46.482Z,0.12
2018-02-09T09:57:46.472Z,0.19
2018-02-09T09:58:46.462Z,0.22
2018-02-09T09:59:46.450Z,0.32
2018-02-09T10:00:46.449Z,0.29
2018-02-09T10:01:46.429Z,0.36
2018-02-09T10:02:46.433Z,0.46
2018-02-09T10:03:46.407Z,0.49
2018-02-09T10:04:46.400Z,0.58
2018-02-09T10:05:46.387Z,0.52
2018-02-09T10:06:46.376Z,0.65
2018-02-09T10:07:46.366Z,0.63
2018-02-09T10:08:46.357Z,0.76
2018-02-09T10:09:46.353Z,0.77
2018-02-09T10:10:46.335Z,0.81
2018-02-09T10:11:46.327Z,0.86
2018-02-09T10:12:46.313Z,0.91
2018-02-09T10:13:46.305Z,0.95
2018-02-09T10:14:46.312Z,1.01
2018-02-09T10:15:46.310Z,1.12
2018-02-09T10:16:46.274Z,1.12
2018-02-09T10:17:46.266Z,1.23
2018-02-09T10:18:46.259Z,1.20
2018-02-09T10:19:46.276Z,1.16
2018-02-09T10:20:46.234Z,1.28
2018-02-09T10:21:46.222Z,1.37
2018-02-09T10:22:46.217Z,1.32
2018-02-09T10:23:46.206Z,1.32
2018-02-09T10:24:46.195Z,1.31
2018-02-09T10:25:46.186Z,1.41
2018-02-09T10:26:46.182Z,1.37
2018-02-09T10:27:46.172Z,1.32
2018-02-09T10:28:46.168Z,1.37
2018-02-09T10:29:46.187Z,1.35
2018-02-09T10:30:46.149Z,1.41
2018-02-09T10:31:46.156Z,1.32
2018-02-09T10:32:46.210Z,1.31
2018-02-09T10:33:46.125Z,1.42
2018-02-09T10:34:46.097Z,1.34
2018-02-09T10:35:46.096Z,1.34
2018-02-09T10:36:46.081Z,1.32
2018-02-09T10:37:46.093Z,1.38
2018-02-09T10:38:46.111Z,1.42
2018-02-09T10:39:46.052Z,1.42
2018-02-09T10:40:46.042Z,1.48
2018-02-09T10:41:46.032Z,1.53
2018-02-09T10:42:46.035Z,1.63
2018-02-09T10:43:46.013Z,1.60
2018-02-09T10:44:46.010Z,1.68
2018-02-09T10:45:46.000Z,1.67
2018-02-09T10:46:45.983Z,1.68
2018-02-09T10:47:45.974Z,1.84
2018-02-09T10:48:45.978Z,1.85
2018-02-09T10:49:45.962Z,2.07
2018-02-09T10:50:45.961Z,2.10
2018-02-09T10:51:45.948Z,2.14
2018-02-09T10:52:45.933Z,2.11
2018-02-09T10:53:45.929Z,2.08
2018-02-09T10:54:45.911Z,2.08
2018-02-09T10:55:45.903Z,2.07
2018-02-09T10:56:45.893Z,2.08
2018-02-09T10:57:45.887Z,2.20
2018-02-09T10:58:45.872Z,2.22
2018-02-09T10:59:45.870Z,2.32
2018-02-09T11:00:45.859Z,2.38
2018-02-09T11:01:45.886Z,2.43
2018-02-09T11:02:45.838Z,2.38
2018-02-09T11:03:45.830Z,2.54
2018-02-09T11:04:45.820Z,2.64
2018-02-09T11:05:45.813Z,2.65
2018-02-09T11:06:45.800Z,2.62
2018-02-09T11:07:45.794Z,2.74
2018-02-09T11:08:45.795Z,2.77
2018-02-09T11:09:45.776Z,2.79
2018-02-09T11:10:45.853Z,2.77
2018-02-09T11:11:45.769Z,2.87
2018-02-09T11:12:45.782Z,2.86
2018-02-09T11:13:45.797Z,2.80
2018-02-09T11:14:45.805Z,2.86
2018-02-09T11:15:45.740Z,2.90
2018-02-09T11:16:45.753Z,2.97
2018-02-09T11:17:45.728Z,2.86
2018-02-09T11:18:45.699Z,2.93
2018-02-09T11:19:45.749Z,2.93
2018-02-09T11:20:45.717Z,2.85
2018-02-09T11:21:45.672Z,2.85
2018-02-09T11:22:45.665Z,2.82
2018-02-09T11:23:45.653Z,2.83
2018-02-09T11:24:45.696Z,2.82
2018-02-09T11:25:45.656Z,2.79
2018-02-09T11:26:45.626Z,2.69
2018-02-09T11:27:45.619Z,2.80
2018-02-09T11:28:45.615Z,2.79
2018-02-09T11:29:45.645Z,2.86
2018-02-09T11:30:45.669Z,2.92
2018-02-09T11:31:45.588Z,2.97
2018-02-09T11:32:45.596Z,2.95
2018-02-09T11:33:45.606Z,2.98
2018-02-09T11:34:45.574Z,2.93
2018-02-09T11:35:45.550Z,2.97
2018-02-09T11:36:45.563Z,2.98
2018-02-09T11:37:45.536Z,2.92
2018-02-09T11:38:45.558Z,2.98
2018-02-09T11:39:45.529Z,2.92
2018-02-09T11:40:45.511Z,2.97
2018-02-09T11:41:45.508Z,2.87
2018-02-09T11:42:45.491Z,2.86
2018-02-09T11:43:45.483Z,2.85
2018-02-09T11:44:45.483Z,2.82
2018-02-09T11:45:45.498Z,2.71
2018-02-09T11:46:45.512Z,2.75
2018-02-09T11:47:45.449Z,2.71
2018-02-09T11:48:45.441Z,2.72
2018-02-09T11:49:45.443Z,2.77
2018-02-09T11:50:45.425Z,2.75
2018-02-09T11:51:45.418Z,2.71
2018-02-09T11:52:45.455Z,2.75
2018-02-09T11:53:45.453Z,2.80
2018-02-09T11:54:45.390Z,2.75
2018-02-09T11:55:45.378Z,2.68
2018-02-09T11:56:45.369Z,2.77
2018-02-09T11:57:45.371Z,2.80
2018-02-09T11:58:45.356Z,2.71
2018-02-09T11:59:45.359Z,2.72
2018-02-09T12:00:45.338Z,2.72
2018-02-09T12:01:45.328Z,2.72
2018-02-09T12:02:45.319Z,2.86
2018-02-09T12:03:45.311Z,2.85
2018-02-09T12:04:45.312Z,2.86
2018-02-09T12:05:45.301Z,2.80
2018-02-09T12:06:45.284Z,2.85
2018-02-09T12:07:45.311Z,2.85
2018-02-09T12:08:45.268Z,2.86
2018-02-09T12:09:45.282Z,2.86
2018-02-09T12:10:45.250Z,2.83
2018-02-09T12:11:45.251Z,2.85
2018-02-09T12:12:45.232Z,2.85
2018-02-09T12:13:45.236Z,2.82
2018-02-09T12:14:45.220Z,2.85
2018-02-09T12:15:45.223Z,2.86
2018-02-09T12:16:45.198Z,2.87
2018-02-09T12:17:45.188Z,2.90
2018-02-09T12:18:45.181Z,2.92
2018-02-09T12:19:45.208Z,2.97
2018-02-09T12:20:45.165Z,3.01
2018-02-09T12:21:45.181Z,3.04
2018-02-09T12:22:45.148Z,3.07
2018-02-09T12:23:45.144Z,3.05
2018-02-09T12:24:45.130Z,2.95
2018-02-09T12:25:45.124Z,3.14
2018-02-09T12:26:45.112Z,3.04
2018-02-09T12:27:45.105Z,3.13
2018-02-09T12:28:45.100Z,3.05
2018-02-09T12:29:45.088Z,3.10
2018-02-09T12:30:45.079Z,3.11
2018-02-09T12:31:45.071Z,3.14
2018-02-09T12:32:45.061Z,3.23
2018-02-09T12:33:45.055Z,3.10
2018-02-09T12:34:45.046Z,3.18
2018-02-09T12:35:45.037Z,3.10
2018-02-09T12:36:45.031Z,3.19
2018-02-09T12:37:45.020Z,3.14
2018-02-09T12:38:45.013Z,3.18
2018-02-09T12:39:45.012Z,3.18
2018-02-09T12:40:44.995Z,3.37
2018-02-09T12:41:44.989Z,3.34
2018-02-09T12:42:44.979Z,3.32
2018-02-09T12:43:44.976Z,3.29
2018-02-09T12:44:44.964Z,3.36
2018-02-09T12:45:44.958Z,3.40
2018-02-09T12:46:44.950Z,3.37
2018-02-09T12:47:44.938Z,3.42
2018-02-09T12:48:44.932Z,3.40
2018-02-09T12:49:44.922Z,3.45
2018-02-09T12:50:44.916Z,3.44
2018-02-09T12:51:44.905Z,3.41
2018-02-09T12:52:44.898Z,3.50
2018-02-09T12:53:44.891Z,3.50
2018-02-09T12:54:44.881Z,3.50
2018-02-09T12:55:44.874Z,3.59
2018-02-09T12:56:44.868Z,3.56
2018-02-09T12:57:44.856Z,3.56
2018-02-09T12:58:44.849Z,3.56